createdAt,value
2019-02-28T04:00:58.675Z,1.60
2019-02-28T04:03:33.308Z,1.60
2019-02-28T04:06:02.892Z,1.60
2019-02-28T04:08:30.417Z,1.60
2019-02-28T04:10:58.496Z,1.60
2019-02-28T04:13:27.090Z,1.60
2019-02-28T04:16:07.559Z,1.60
2019-02-28T04:18:26.362Z,1.60
2019-02-28T04:20:55.233Z,1.60
2019-02-28T04:23:23.812Z,1.60
2019-02-28T04:25:56.726Z,1.60
2019-02-28T04:28:23.009Z,1.50
2019-02-28T04:30:51.637Z,1.50
2019-02-28T04:33:20.215Z,1.50
2019-02-28T04:35:48.789Z,1.50
2019-02-28T04:38:20.533Z,1.50
2019-02-28T04:40:47.973Z,1.50
2019-02-28T04:43:16.903Z,1.50
2019-02-28T04:45:45.474Z,1.50
2019-02-28T04:48:14.699Z,1.50
2019-02-28T04:50:43.310Z,1.50
2019-02-28T04:53:11.879Z,1.40
2019-02-28T04:55:40.481Z,1.40
2019-02-28T04:58:09.059Z,1.40
2019-02-28T05:00:38.063Z,1.40
2019-02-28T05:03:07.506Z,1.30
2019-02-28T05:05:36.077Z,1.40
2019-02-28T05:08:05.556Z,1.40
2019-02-28T05:10:34.557Z,1.40
2019-02-28T05:13:03.125Z,1.40
2019-02-28T05:15:34.596Z,1.40
2019-02-28T05:18:02.016Z,1.40
2019-02-28T05:20:30.589Z,1.30
2019-02-28T05:23:02.659Z,1.40
2019-02-28T05:25:29.720Z,1.30
2019-02-28T05:27:58.762Z,1.30
2019-02-28T05:30:27.377Z,1.30
2019-02-28T05:32:56.218Z,1.30
2019-02-28T05:35:26.596Z,1.30
2019-02-28T05:37:55.118Z,1.30
2019-02-28T05:40:23.725Z,1.20
2019-02-28T05:42:54.624Z,1.20
2019-02-28T05:45:22.598Z,1.20
2019-02-28T05:47:51.217Z,1.20
2019-02-28T05:50:19.787Z,1.20
2019-02-28T05:52:48.383Z,1.20
2019-02-28T05:55:16.955Z,1.20
2019-02-28T05:57:45.531Z,1.10
2019-02-28T06:00:15.527Z,1.10
2019-02-28T06:02:44.106Z,1.10
2019-02-28T06:05:13.066Z,1.10
2019-02-28T06:07:42.047Z,1.10
2019-02-28T06:10:10.633Z,1.20
2019-02-28T06:12:40.500Z,1.20
2019-02-28T06:15:09.632Z,1.20
2019-02-28T06:17:38.221Z,1.20
2019-02-28T06:20:07.437Z,1.20
2019-02-28T06:22:36.336Z,1.20
2019-02-28T06:25:05.115Z,1.20
2019-02-28T06:27:41.207Z,1.30
2019-02-28T06:30:04.249Z,1.40
2019-02-28T06:32:32.843Z,1.40
2019-02-28T06:35:01.414Z,1.40
2019-02-28T06:37:30.055Z,1.50
2019-02-28T06:39:59.340Z,1.60
2019-02-28T06:42:28.003Z,1.70
2019-02-28T06:44:58.704Z,1.90
2019-02-28T06:47:26.874Z,1.90
2019-02-28T06:49:55.473Z,1.90
2019-02-28T06:52:25.238Z,2.10
2019-02-28T06:54:54.424Z,2.40
2019-02-28T06:57:23.021Z,2.70
2019-02-28T06:59:51.593Z,2.80
2019-02-28T07:02:20.186Z,3.00
2019-02-28T07:04:49.483Z,3.10
2019-02-28T07:07:19.142Z,3.20
2019-02-28T07:09:47.724Z,3.30
2019-02-28T07:12:16.293Z,3.40
2019-02-28T07:14:49.280Z,3.60
2019-02-28T07:17:15.194Z,4.00
2019-02-28T07:19:43.806Z,4.20
2019-02-28T07:22:12.382Z,4.40
2019-02-28T07:24:40.958Z,4.50
2019-02-28T07:27:09.560Z,4.80
2019-02-28T07:29:38.153Z,5.00
2019-02-28T07:32:06.793Z,5.20
2019-02-28T07:34:35.375Z,5.40
2019-02-28T07:37:03.941Z,5.70
2019-02-28T07:39:32.535Z,6.10
2019-02-28T07:42:02.259Z,6.50
2019-02-28T07:44:31.448Z,7.10
2019-02-28T07:47:00.017Z,8.00
2019-02-28T07:49:28.586Z,9.00
2019-02-28T07:51:57.959Z,10.30
2019-02-28T07:54:26.629Z,11.50
2019-02-28T07:56:55.244Z,12.50
2019-02-28T07:59:23.835Z,13.90
2019-02-28T08:01:52.403Z,15.10
2019-02-28T08:04:20.997Z,15.60
2019-02-28T08:06:49.589Z,16.00
2019-02-28T08:09:26.420Z,17.50
2019-02-28T08:11:56.584Z,18.20
2019-02-28T08:14:25.467Z,19.20
2019-02-28T08:16:54.158Z,19.90
2019-02-28T08:19:22.996Z,20.40
2019-02-28T08:21:53.072Z,20.60
2019-02-28T08:24:21.641Z,20.40
2019-02-28T08:26:50.675Z,20.60
2019-02-28T08:29:20.543Z,20.90
2019-02-28T08:31:49.134Z,22.30
2019-02-28T08:34:20.713Z,22.90
2019-02-28T08:36:48.149Z,24.10
2019-02-28T08:39:17.237Z,23.30
2019-02-28T08:41:45.833Z,22.70
2019-02-28T08:44:14.407Z,21.80
2019-02-28T08:46:43.485Z,21.70
2019-02-28T08:49:13.406Z,21.20
2019-02-28T08:51:43.238Z,20.30
2019-02-28T08:54:11.967Z,18.90
2019-02-28T08:56:40.546Z,18.10
2019-02-28T08:59:11.795Z,17.80
2019-02-28T09:01:41.280Z,17.60
2019-02-28T09:04:10.014Z,17.40
2019-02-28T09:06:40.934Z,17.10
2019-02-28T09:09:10.809Z,17.60
2019-02-28T09:11:39.417Z,18.00
2019-02-28T09:14:07.993Z,18.40
2019-02-28T09:16:36.735Z,18.90
2019-02-28T09:19:06.893Z,19.10
2019-02-28T09:21:35.473Z,19.50
2019-02-28T09:24:04.078Z,19.70
2019-02-28T09:26:32.658Z,20.30
2019-02-28T09:29:01.243Z,20.70
2019-02-28T09:31:29.853Z,21.70
2019-02-28T09:33:58.883Z,21.90
2019-02-28T09:36:28.245Z,21.60
2019-02-28T09:38:59.500Z,21.90
2019-02-28T09:41:27.441Z,22.40
2019-02-28T09:43:57.214Z,22.50
2019-02-28T09:46:26.355Z,22.70
2019-02-28T09:48:54.961Z,23.30
2019-02-28T09:51:23.543Z,23.80
2019-02-28T09:53:52.518Z,24.00
2019-02-28T09:56:21.122Z,22.70
2019-02-28T09:58:49.701Z,22.30
2019-02-28T10:01:21.196Z,22.30
2019-02-28T10:03:48.906Z,22.40
2019-02-28T10:06:17.484Z,22.60
2019-02-28T10:08:46.081Z,23.60
2019-02-28T10:11:14.666Z,24.20
2019-02-28T10:13:43.261Z,24.00
2019-02-28T10:16:13.615Z,24.20
2019-02-28T10:18:42.146Z,24.00
2019-02-28T10:21:10.749Z,25.00
2019-02-28T10:23:39.408Z,24.60
2019-02-28T10:26:08.017Z,24.90
2019-02-28T10:28:36.616Z,25.00
2019-02-28T10:31:05.179Z,25.30
2019-02-28T10:33:33.778Z,25.30
2019-02-28T10:36:02.381Z,25.50
2019-02-28T10:38:32.911Z,25.20
2019-02-28T10:41:01.289Z,24.60
2019-02-28T10:43:29.869Z,24.90
2019-02-28T10:45:58.502Z,25.20
2019-02-28T10:48:27.090Z,25.30
2019-02-28T10:50:55.709Z,25.50
2019-02-28T10:53:24.298Z,25.30
2019-02-28T10:55:54.460Z,24.90
2019-02-28T10:58:23.197Z,24.40
2019-02-28T11:00:51.777Z,24.00
2019-02-28T11:03:20.387Z,23.20
2019-02-28T11:05:53.417Z,23.10
2019-02-28T11:08:19.423Z,22.90
2019-02-28T11:10:48.158Z,22.80
2019-02-28T11:13:17.802Z,22.60
2019-02-28T11:15:48.362Z,22.00
2019-02-28T11:18:16.718Z,22.10
2019-02-28T11:20:45.293Z,22.30
2019-02-28T11:23:15.664Z,22.50
2019-02-28T11:25:44.829Z,22.90
2019-02-28T11:28:13.858Z,23.20
2019-02-28T11:30:44.731Z,23.30
2019-02-28T11:33:13.923Z,23.70
2019-02-28T11:35:42.545Z,22.90
2019-02-28T11:38:11.289Z,23.00
2019-02-28T11:40:40.506Z,22.90
2019-02-28T11:43:10.386Z,23.30
2019-02-28T11:45:39.682Z,23.20
2019-02-28T11:48:08.290Z,23.00
2019-02-28T11:50:41.342Z,22.90
2019-02-28T11:53:07.201Z,23.00
2019-02-28T11:55:35.781Z,22.90
2019-02-28T11:58:04.366Z,22.70
2019-02-28T12:00:35.663Z,23.20
2019-02-28T12:03:05.330Z,23.80
2019-02-28T12:05:33.658Z,24.40
2019-02-28T12:08:02.249Z,24.20
2019-02-28T12:10:30.902Z,24.40
2019-02-28T12:12:59.504Z,24.40
2019-02-28T12:15:28.545Z,24.70
2019-02-28T12:17:57.157Z,25.00
2019-02-28T12:20:26.601Z,25.30
2019-02-28T12:22:56.078Z,25.20
2019-02-28T12:25:24.689Z,25.00
2019-02-28T12:27:55.273Z,24.70
2019-02-28T12:30:26.117Z,24.40
2019-02-28T12:32:54.777Z,24.80
2019-02-28T12:35:23.469Z,25.10
2019-02-28T12:37:53.918Z,25.00
2019-02-28T12:40:25.470Z,25.50
2019-02-28T12:42:54.052Z,25.40
2019-02-28T12:45:28.142Z,25.50
2019-02-28T12:47:56.725Z,25.30
2019-02-28T12:50:25.309Z,24.70
2019-02-28T12:52:53.943Z,24.40
2019-02-28T12:55:22.538Z,24.30
2019-02-28T12:57:51.740Z,24.40
2019-02-28T13:00:28.740Z,24.50
2019-02-28T13:02:57.341Z,24.80
2019-02-28T13:05:25.917Z,24.50
2019-02-28T13:07:54.493Z,24.70
2019-02-28T13:10:26.891Z,24.60
2019-02-28T13:12:53.417Z,24.40
2019-02-28T13:15:22.901Z,24.40
2019-02-28T13:17:51.541Z,24.20
2019-02-28T13:20:21.180Z,23.80
2019-02-28T13:22:49.776Z,23.20
2019-02-28T13:25:19.515Z,22.60
2019-02-28T13:27:50.214Z,22.20
2019-02-28T13:30:23.008Z,22.00
2019-02-28T13:32:51.566Z,21.60
2019-02-28T13:35:25.398Z,21.30
2019-02-28T13:37:54.172Z,21.40
2019-02-28T13:40:22.769Z,21.40
2019-02-28T13:42:51.374Z,21.30
2019-02-28T13:45:23.041Z,21.30
2019-02-28T13:47:50.318Z,21.10
2019-02-28T13:50:22.065Z,20.80
2019-02-28T13:52:52.154Z,20.50
2019-02-28T13:55:21.545Z,20.40
2019-02-28T13:57:50.117Z,20.50
2019-02-28T14:00:21.838Z,20.50
2019-02-28T14:02:58.461Z,20.50
2019-02-28T14:05:27.047Z,20.60
2019-02-28T14:07:55.761Z,20.50
2019-02-28T14:10:24.525Z,20.50
2019-02-28T14:12:57.004Z,20.40
2019-02-28T14:15:26.926Z,20.40
2019-02-28T14:17:55.850Z,20.20
2019-02-28T14:20:27.520Z,20.10
2019-02-28T14:22:54.753Z,19.90
2019-02-28T14:25:24.137Z,19.90
2019-02-28T14:27:52.770Z,19.60
2019-02-28T14:30:23.639Z,19.50
2019-02-28T14:32:52.409Z,19.40
2019-02-28T14:35:22.842Z,19.10
2019-02-28T14:37:55.320Z,19.00
2019-02-28T14:40:22.070Z,18.90
2019-02-28T14:42:50.686Z,18.80
2019-02-28T14:45:20.266Z,18.70
2019-02-28T14:47:56.911Z,18.70
2019-02-28T14:50:20.920Z,18.70
2019-02-28T14:52:50.514Z,18.80
2019-02-28T14:55:19.119Z,18.90
2019-02-28T14:57:48.878Z,18.90
2019-02-28T15:00:24.594Z,19.00
2019-02-28T15:02:53.166Z,19.10
2019-02-28T15:05:21.810Z,19.10
2019-02-28T15:07:50.742Z,19.00
2019-02-28T15:10:19.646Z,18.90
2019-02-28T15:12:48.465Z,18.80
2019-02-28T15:15:18.966Z,18.60
2019-02-28T15:17:47.824Z,18.60
2019-02-28T15:20:16.422Z,18.40
2019-02-28T15:22:45.706Z,18.50
2019-02-28T15:25:18.557Z,18.30
2019-02-28T15:27:45.777Z,18.10
2019-02-28T15:30:16.674Z,18.10
2019-02-28T15:32:45.259Z,18.10
2019-02-28T15:35:16.018Z,18.10
2019-02-28T15:37:44.714Z,18.00
2019-02-28T15:40:25.480Z,17.90
2019-02-28T15:42:54.076Z,17.90
2019-02-28T15:45:22.654Z,17.80
2019-02-28T15:47:59.138Z,17.70
2019-02-28T15:50:28.230Z,17.60
2019-02-28T15:52:56.975Z,17.50
2019-02-28T15:55:44.886Z,17.50
2019-02-28T15:58:13.470Z,17.40
2019-02-28T16:00:42.068Z,17.40
2019-02-28T16:03:13.529Z,17.30
2019-02-28T16:05:43.984Z,17.30
2019-02-28T16:08:11.278Z,17.20
2019-02-28T16:10:39.881Z,17.20
2019-02-28T16:13:08.462Z,17.10
2019-02-28T16:15:37.034Z,17.10
2019-02-28T16:18:08.766Z,17.00
2019-02-28T16:20:35.945Z,16.90
2019-02-28T16:23:04.538Z,16.80
2019-02-28T16:25:33.675Z,16.70
2019-02-28T16:28:04.444Z,16.70
2019-02-28T16:30:32.924Z,16.50
2019-02-28T16:33:01.726Z,16.50
2019-02-28T16:35:30.618Z,16.40
2019-02-28T16:37:59.314Z,16.40
2019-02-28T16:40:27.925Z,16.20
2019-02-28T16:42:56.509Z,16.10
2019-02-28T16:45:30.917Z,16.10
2019-02-28T16:48:02.948Z,16.00
2019-02-28T16:50:31.526Z,15.90
2019-02-28T16:53:00.113Z,15.80
2019-02-28T16:55:31.076Z,15.70
2019-02-28T16:57:59.349Z,15.60
2019-02-28T17:00:28.008Z,15.60
2019-02-28T17:02:56.665Z,15.50
2019-02-28T17:05:28.531Z,15.50
2019-02-28T17:07:57.354Z,15.40
2019-02-28T17:10:31.011Z,15.30
2019-02-28T17:13:30.705Z,15.20
2019-02-28T17:16:17.117Z,15.10
2019-02-28T17:18:45.980Z,15.10
2019-02-28T17:21:17.869Z,15.00
2019-02-28T17:23:45.340Z,14.90
2019-02-28T17:33:46.844Z,14.60
2019-02-28T17:36:14.755Z,14.50
2019-02-28T17:38:43.531Z,14.50
2019-02-28T17:41:12.258Z,14.50
2019-02-28T17:43:40.854Z,14.40
2019-02-28T17:46:10.590Z,14.40
2019-02-28T17:49:19.620Z,14.30
2019-02-28T17:51:58.565Z,14.40
2019-02-28T17:55:04.690Z,14.30
2019-02-28T17:58:04.137Z,14.30
2019-02-28T18:01:02.663Z,14.30
2019-02-28T18:04:20.985Z,14.20
2019-02-28T18:07:26.583Z,14.20
2019-02-28T18:10:01.267Z,14.10
2019-02-28T18:13:22.747Z,14.10
2019-02-28T18:16:28.338Z,14.10
2019-02-28T18:19:09.883Z,14.10
2019-02-28T18:21:52.175Z,14.10
2019-02-28T18:24:57.233Z,14.00
2019-02-28T18:27:59.759Z,13.90
2019-02-28T18:31:04.617Z,13.80
2019-02-28T18:33:33.230Z,13.80
2019-02-28T18:36:05.091Z,13.80
2019-02-28T18:38:35.713Z,13.80
2019-02-28T18:41:05.651Z,13.80
2019-02-28T18:43:32.814Z,13.80
2019-02-28T18:46:01.969Z,13.80
2019-02-28T18:48:30.618Z,13.70
2019-02-28T18:50:59.239Z,13.70
2019-02-28T18:53:27.875Z,13.70
2019-02-28T18:55:56.502Z,13.70
2019-02-28T18:58:25.146Z,13.70
2019-02-28T19:00:55.313Z,13.70
2019-02-28T19:03:25.557Z,13.70
2019-02-28T19:05:54.270Z,13.70
2019-02-28T19:08:22.887Z,13.60
2019-02-28T19:10:51.466Z,13.60
2019-02-28T19:13:20.065Z,13.60
2019-02-28T19:15:48.921Z,13.50
2019-02-28T19:18:17.499Z,13.50
2019-02-28T19:20:46.082Z,13.50
2019-02-28T19:23:14.705Z,13.40
2019-02-28T19:25:43.286Z,13.40
2019-02-28T19:28:11.907Z,13.40
2019-02-28T19:30:40.521Z,13.30
2019-02-28T19:33:09.098Z,13.30
2019-02-28T19:35:37.773Z,13.20
2019-02-28T19:38:06.491Z,13.20
2019-02-28T19:40:35.078Z,13.20
2019-02-28T19:43:03.707Z,13.10
2019-02-28T19:45:32.415Z,13.00
2019-02-28T19:48:00.993Z,13.00
2019-02-28T19:50:29.623Z,13.00
2019-02-28T19:52:58.678Z,12.90
2019-02-28T19:55:27.358Z,12.80
2019-02-28T19:57:55.954Z,12.80
2019-02-28T20:00:24.637Z,12.80
2019-02-28T20:02:53.224Z,12.70
2019-02-28T20:05:21.807Z,12.60
2019-02-28T20:07:50.421Z,12.60
2019-02-28T20:10:19.189Z,12.50
2019-02-28T20:12:47.777Z,12.40
2019-02-28T20:15:16.453Z,12.40
2019-02-28T20:17:45.106Z,12.30
2019-02-28T20:20:15.457Z,12.30
2019-02-28T20:22:44.078Z,12.20
2019-02-28T20:25:13.018Z,12.10
2019-02-28T20:27:41.626Z,12.10
2019-02-28T20:30:12.524Z,12.00
2019-02-28T20:32:41.113Z,12.00
2019-02-28T20:35:09.750Z,12.00
2019-02-28T20:37:38.357Z,12.00
2019-02-28T20:40:08.858Z,11.90
2019-02-28T20:42:37.454Z,11.80
2019-02-28T20:45:06.772Z,11.80
2019-02-28T20:47:35.350Z,11.80
2019-02-28T20:50:27.945Z,11.70
2019-02-28T20:52:56.530Z,11.70
2019-02-28T20:55:25.133Z,11.70
2019-02-28T20:57:53.746Z,11.50
2019-02-28T21:00:25.769Z,11.50
2019-02-28T21:02:54.615Z,11.50
2019-02-28T21:05:23.259Z,11.40
2019-02-28T21:07:51.842Z,11.40
2019-02-28T21:10:20.434Z,11.30
2019-02-28T21:12:49.038Z,11.30
2019-02-28T21:15:17.619Z,11.20
2019-02-28T21:17:46.196Z,11.20
2019-02-28T21:20:15.091Z,11.20
2019-02-28T21:22:43.672Z,11.20
2019-02-28T21:25:12.319Z,11.20
2019-02-28T21:27:40.921Z,11.10
2019-02-28T21:30:17.174Z,11.10
2019-02-28T21:32:45.761Z,11.10
2019-02-28T21:35:15.298Z,11.00
2019-02-28T21:37:43.908Z,11.00
2019-02-28T21:40:12.622Z,10.90
2019-02-28T21:42:41.352Z,10.90
2019-02-28T21:45:10.921Z,10.90
2019-02-28T21:47:39.526Z,10.90
2019-02-28T21:50:10.102Z,10.90
2019-02-28T21:52:38.678Z,10.80
2019-02-28T21:55:08.454Z,10.80
2019-02-28T21:57:37.058Z,10.80
2019-02-28T22:00:09.697Z,10.70
2019-02-28T22:02:38.297Z,10.70
2019-02-28T22:05:08.598Z,10.60
2019-02-28T22:07:37.178Z,10.50
2019-02-28T22:10:05.882Z,10.50
2019-02-28T22:12:34.461Z,10.50
2019-02-28T22:15:03.073Z,10.40
2019-02-28T22:17:31.670Z,10.40
2019-02-28T22:20:00.347Z,10.30
2019-02-28T22:22:28.904Z,10.30
2019-02-28T22:24:57.514Z,10.30
2019-02-28T22:27:26.421Z,10.20
2019-02-28T22:29:55.013Z,10.20
2019-02-28T22:32:32.341Z,10.20
2019-02-28T22:35:09.322Z,10.10
2019-02-28T22:37:37.922Z,10.10
2019-02-28T22:40:06.605Z,10.10
2019-02-28T22:42:35.517Z,10.10
2019-02-28T22:45:04.710Z,10.10
2019-02-28T22:47:33.289Z,10.10
2019-02-28T22:50:01.884Z,10.10
2019-02-28T22:52:30.487Z,10.00
2019-02-28T22:54:59.346Z,9.90
2019-02-28T22:57:27.914Z,9.90
2019-02-28T22:59:56.645Z,9.90
